sensor_id;sensor_type;location;lat;lon;timestamp;P1;durP1;ratioP1;P2;durP2;ratioP2
23384;SDS011;11865;45.394;10.978;2023-02-19T00:02:24;230.93;;;97.35;;
23384;SDS011;11865;45.394;10.978;2023-02-19T00:04:51;223.73;;;94.55;;
23384;SDS011;11865;45.394;10.978;2023-02-19T00:07:19;219.23;;;93.63;;
23384;SDS011;11865;45.394;10.978;2023-02-19T00:09:46;230.43;;;94.93;;
23384;SDS011;11865;45.394;10.978;2023-02-19T00:12:14;212.70;;;90.30;;
23384;SDS011;11865;45.394;10.978;2023-02-19T00:14:41;216.05;;;92.93;;
23384;SDS011;11865;45.394;10.978;2023-02-19T00:17:09;214.77;;;93.13;;
23384;SDS011;11865;45.394;10.978;2023-02-19T00:19:36;215.40;;;90.07;;
23384;SDS011;11865;45.394;10.978;2023-02-19T00:22:04;218.32;;;91.63;;
23384;SDS011;11865;45.394;10.978;2023-02-19T00:24:31;229.18;;;95.68;;
23384;SDS011;11865;45.394;10.978;2023-02-19T00:26:58;204.10;;;89.30;;
23384;SDS011;11865;45.394;10.978;2023-02-19T00:29:26;205.43;;;90.47;;
23384;SDS011;11865;45.394;10.978;2023-02-19T00:31:53;209.52;;;88.95;;
23384;SDS011;11865;45.394;10.978;2023-02-19T00:34:21;193.75;;;84.50;;
23384;SDS011;11865;45.394;10.978;2023-02-19T00:36:48;210.63;;;91.28;;
23384;SDS011;11865;45.394;10.978;2023-02-19T00:39:16;194.27;;;85.65;;
23384;SDS011;11865;45.394;10.978;2023-02-19T00:41:44;205.45;;;89.85;;
23384;SDS011;11865;45.394;10.978;2023-02-19T00:44:12;209.52;;;89.55;;
23384;SDS011;11865;45.394;10.978;2023-02-19T00:46:44;209.15;;;90.40;;
23384;SDS011;11865;45.394;10.978;2023-02-19T00:51:42;205.68;;;87.40;;
23384;SDS011;11865;45.394;10.978;2023-02-19T00:54:09;208.27;;;87.70;;
23384;SDS011;11865;45.394;10.978;2023-02-19T00:56:38;200.40;;;86.78;;
23384;SDS011;11865;45.394;10.978;2023-02-19T00:59:05;186.93;;;80.90;;
23384;SDS011;11865;45.394;10.978;2023-02-19T01:01:33;184.38;;;79.82;;
23384;SDS011;11865;45.394;10.978;2023-02-19T01:04:00;188.80;;;83.53;;
23384;SDS011;11865;45.394;10.978;2023-02-19T01:06:31;180.80;;;81.78;;
23384;SDS011;11865;45.394;10.978;2023-02-19T01:08:58;186.77;;;83.15;;
23384;SDS011;11865;45.394;10.978;2023-02-19T01:11:26;192.48;;;83.28;;
23384;SDS011;11865;45.394;10.978;2023-02-19T01:13:57;189.48;;;82.68;;
23384;SDS011;11865;45.394;10.978;2023-02-19T01:16:24;188.88;;;86.47;;
23384;SDS011;11865;45.394;10.978;2023-02-19T01:18:53;195.02;;;86.60;;
23384;SDS011;11865;45.394;10.978;2023-02-19T01:21:22;206.40;;;88.63;;
23384;SDS011;11865;45.394;10.978;2023-02-19T01:23:51;192.23;;;83.00;;
23384;SDS011;11865;45.394;10.978;2023-02-19T01:26:20;187.40;;;82.07;;
23384;SDS011;11865;45.394;10.978;2023-02-19T01:28:49;193.13;;;83.68;;
23384;SDS011;11865;45.394;10.978;2023-02-19T01:31:18;199.55;;;84.85;;
23384;SDS011;11865;45.394;10.978;2023-02-19T01:33:47;202.43;;;87.43;;
23384;SDS011;11865;45.394;10.978;2023-02-19T01:36:23;205.27;;;88.45;;
23384;SDS011;11865;45.394;10.978;2023-02-19T01:38:52;199.65;;;85.43;;
23384;SDS011;11865;45.394;10.978;2023-02-19T01:41:23;209.85;;;91.45;;
23384;SDS011;11865;45.394;10.978;2023-02-19T01:43:59;221.18;;;93.15;;
23384;SDS011;11865;45.394;10.978;2023-02-19T01:46:35;215.10;;;90.20;;
23384;SDS011;11865;45.394;10.978;2023-02-19T01:49:05;217.45;;;92.18;;
23384;SDS011;11865;45.394;10.978;2023-02-19T01:52:04;221.15;;;91.85;;
23384;SDS011;11865;45.394;10.978;2023-02-19T01:54:52;236.25;;;92.50;;
23384;SDS011;11865;45.394;10.978;2023-02-19T01:57:23;235.20;;;95.85;;
23384;SDS011;11865;45.394;10.978;2023-02-19T01:59:54;216.73;;;91.78;;
23384;SDS011;11865;45.394;10.978;2023-02-19T02:02:38;232.43;;;95.95;;
23384;SDS011;11865;45.394;10.978;2023-02-19T02:05:09;244.43;;;99.43;;
23384;SDS011;11865;45.394;10.978;2023-02-19T02:07:47;233.07;;;96.00;;
23384;SDS011;11865;45.394;10.978;2023-02-19T02:10:33;236.20;;;99.22;;
23384;SDS011;11865;45.394;10.978;2023-02-19T02:13:01;217.70;;;89.25;;
23384;SDS011;11865;45.394;10.978;2023-02-19T02:15:34;218.55;;;88.97;;
23384;SDS011;11865;45.394;10.978;2023-02-19T02:21:15;221.70;;;95.13;;
23384;SDS011;11865;45.394;10.978;2023-02-19T02:23:51;245.55;;;97.50;;
23384;SDS011;11865;45.394;10.978;2023-02-19T02:26:52;203.40;;;85.20;;
23384;SDS011;11865;45.394;10.978;2023-02-19T02:29:45;192.27;;;80.32;;
23384;SDS011;11865;45.394;10.978;2023-02-19T02:35:59;237.10;;;90.82;;
23384;SDS011;11865;45.394;10.978;2023-02-19T02:41:12;195.18;;;83.80;;
23384;SDS011;11865;45.394;10.978;2023-02-19T02:43:40;180.90;;;79.45;;
23384;SDS011;11865;45.394;10.978;2023-02-19T02:46:09;216.68;;;85.40;;
23384;SDS011;11865;45.394;10.978;2023-02-19T02:51:45;192.07;;;83.55;;
23384;SDS011;11865;45.394;10.978;2023-02-19T02:54:28;202.95;;;86.05;;
23384;SDS011;11865;45.394;10.978;2023-02-19T02:57:20;230.85;;;91.28;;
23384;SDS011;11865;45.394;10.978;2023-02-19T02:59:52;219.57;;;87.63;;
23384;SDS011;11865;45.394;10.978;2023-02-19T03:02:22;213.70;;;88.70;;
23384;SDS011;11865;45.394;10.978;2023-02-19T03:08:03;204.95;;;86.97;;
23384;SDS011;11865;45.394;10.978;2023-02-19T03:10:43;206.57;;;86.95;;
23384;SDS011;11865;45.394;10.978;2023-02-19T03:13:15;207.32;;;83.65;;
23384;SDS011;11865;45.394;10.978;2023-02-19T03:16:11;196.43;;;84.82;;
23384;SDS011;11865;45.394;10.978;2023-02-19T03:19:08;213.00;;;84.47;;
23384;SDS011;11865;45.394;10.978;2023-02-19T03:24:39;196.80;;;85.57;;
23384;SDS011;11865;45.394;10.978;2023-02-19T03:27:29;208.88;;;87.65;;
23384;SDS011;11865;45.394;10.978;2023-02-19T03:30:02;201.38;;;84.75;;
23384;SDS011;11865;45.394;10.978;2023-02-19T03:32:46;201.40;;;85.88;;
23384;SDS011;11865;45.394;10.978;2023-02-19T03:35:23;200.23;;;83.85;;
23384;SDS011;11865;45.394;10.978;2023-02-19T03:40:33;209.52;;;92.50;;
23384;SDS011;11865;45.394;10.978;2023-02-19T03:46:10;196.40;;;83.65;;
23384;SDS011;11865;45.394;10.978;2023-02-19T03:49:00;205.82;;;85.47;;
23384;SDS011;11865;45.394;10.978;2023-02-19T03:51:50;195.60;;;85.32;;
23384;SDS011;11865;45.394;10.978;2023-02-19T03:57:06;188.57;;;81.57;;
23384;SDS011;11865;45.394;10.978;2023-02-19T03:59:57;201.32;;;86.18;;
23384;SDS011;11865;45.394;10.978;2023-02-19T04:05:31;194.70;;;85.60;;
23384;SDS011;11865;45.394;10.978;2023-02-19T04:08:05;203.35;;;85.32;;
23384;SDS011;11865;45.394;10.978;2023-02-19T04:10:46;201.25;;;90.18;;
23384;SDS011;11865;45.394;10.978;2023-02-19T04:13:23;219.18;;;90.00;;
23384;SDS011;11865;45.394;10.978;2023-02-19T04:16:08;208.00;;;86.22;;
23384;SDS011;11865;45.394;10.978;2023-02-19T04:18:42;210.75;;;86.93;;
23384;SDS011;11865;45.394;10.978;2023-02-19T04:21:12;238.75;;;94.95;;
23384;SDS011;11865;45.394;10.978;2023-02-19T04:23:42;243.38;;;95.45;;
23384;SDS011;11865;45.394;10.978;2023-02-19T04:26:11;222.65;;;90.78;;
23384;SDS011;11865;45.394;10.978;2023-02-19T04:28:40;243.88;;;93.72;;
23384;SDS011;11865;45.394;10.978;2023-02-19T04:31:09;242.75;;;94.03;;
23384;SDS011;11865;45.394;10.978;2023-02-19T04:33:38;261.20;;;97.63;;
23384;SDS011;11865;45.394;10.978;2023-02-19T04:36:06;252.02;;;93.28;;
23384;SDS011;11865;45.394;10.978;2023-02-19T04:38:36;274.50;;;97.03;;
23384;SDS011;11865;45.394;10.978;2023-02-19T04:41:04;296.20;;;95.50;;
23384;SDS011;11865;45.394;10.978;2023-02-19T04:43:31;312.80;;;99.40;;
23384;SDS011;11865;45.394;10.978;2023-02-19T04:45:59;285.35;;;97.72;;
23384;SDS011;11865;45.394;10.978;2023-02-19T04:48:27;312.73;;;104.13;;
23384;SDS011;11865;45.394;10.978;2023-02-19T04:50:55;288.60;;;103.43;;
23384;SDS011;11865;45.394;10.978;2023-02-19T04:53:22;307.58;;;103.97;;
23384;SDS011;11865;45.394;10.978;2023-02-19T04:55:50;261.80;;;95.90;;
23384;SDS011;11865;45.394;10.978;2023-02-19T04:58:19;275.00;;;93.38;;
23384;SDS011;11865;45.394;10.978;2023-02-19T05:00:50;265.27;;;95.10;;
23384;SDS011;11865;45.394;10.978;2023-02-19T05:03:18;280.00;;;96.70;;
23384;SDS011;11865;45.394;10.978;2023-02-19T05:05:46;259.13;;;90.78;;
23384;SDS011;11865;45.394;10.978;2023-02-19T05:08:13;272.65;;;94.38;;
23384;SDS011;11865;45.394;10.978;2023-02-19T05:10:41;272.17;;;94.20;;
23384;SDS011;11865;45.394;10.978;2023-02-19T05:13:08;305.52;;;93.50;;
23384;SDS011;11865;45.394;10.978;2023-02-19T05:15:35;295.85;;;91.88;;
23384;SDS011;11865;45.394;10.978;2023-02-19T05:18:03;335.95;;;91.20;;
23384;SDS011;11865;45.394;10.978;2023-02-19T05:20:31;297.23;;;88.13;;
23384;SDS011;11865;45.394;10.978;2023-02-19T05:22:58;288.67;;;89.20;;
23384;SDS011;11865;45.394;10.978;2023-02-19T05:25:25;268.27;;;89.03;;
23384;SDS011;11865;45.394;10.978;2023-02-19T05:27:53;255.75;;;85.35;;
23384;SDS011;11865;45.394;10.978;2023-02-19T05:30:40;306.13;;;90.38;;
23384;SDS011;11865;45.394;10.978;2023-02-19T05:33:08;264.35;;;90.05;;
23384;SDS011;11865;45.394;10.978;2023-02-19T05:36:09;276.90;;;88.35;;
23384;SDS011;11865;45.394;10.978;2023-02-19T05:38:34;292.58;;;88.00;;
23384;SDS011;11865;45.394;10.978;2023-02-19T05:43:45;244.82;;;87.05;;
23384;SDS011;11865;45.394;10.978;2023-02-19T05:46:15;271.17;;;86.97;;
23384;SDS011;11865;45.394;10.978;2023-02-19T05:48:46;259.95;;;85.47;;
23384;SDS011;11865;45.394;10.978;2023-02-19T05:51:17;231.30;;;88.15;;
23384;SDS011;11865;45.394;10.978;2023-02-19T05:53:46;240.88;;;90.85;;
23384;SDS011;11865;45.394;10.978;2023-02-19T05:59:05;244.63;;;91.30;;
23384;SDS011;11865;45.394;10.978;2023-02-19T06:01:46;224.55;;;87.72;;
23384;SDS011;11865;45.394;10.978;2023-02-19T06:04:15;225.82;;;85.18;;
23384;SDS011;11865;45.394;10.978;2023-02-19T06:06:46;237.88;;;87.05;;
23384;SDS011;11865;45.394;10.978;2023-02-19T06:09:14;262.77;;;88.80;;
23384;SDS011;11865;45.394;10.978;2023-02-19T06:11:41;244.45;;;91.13;;
23384;SDS011;11865;45.394;10.978;2023-02-19T06:14:10;236.15;;;88.25;;
23384;SDS011;11865;45.394;10.978;2023-02-19T06:16:39;234.98;;;89.18;;
23384;SDS011;11865;45.394;10.978;2023-02-19T06:19:07;217.45;;;88.18;;
23384;SDS011;11865;45.394;10.978;2023-02-19T06:21:35;221.82;;;87.80;;
23384;SDS011;11865;45.394;10.978;2023-02-19T06:24:03;209.82;;;85.07;;
23384;SDS011;11865;45.394;10.978;2023-02-19T06:26:32;208.30;;;82.90;;
23384;SDS011;11865;45.394;10.978;2023-02-19T06:28:59;213.65;;;86.57;;
23384;SDS011;11865;45.394;10.978;2023-02-19T06:31:27;204.10;;;82.78;;
23384;SDS011;11865;45.394;10.978;2023-02-19T06:33:55;211.43;;;86.53;;
23384;SDS011;11865;45.394;10.978;2023-02-19T06:36:22;201.02;;;82.20;;
23384;SDS011;11865;45.394;10.978;2023-02-19T06:38:50;194.98;;;78.97;;
23384;SDS011;11865;45.394;10.978;2023-02-19T06:41:17;200.60;;;83.50;;
23384;SDS011;11865;45.394;10.978;2023-02-19T06:43:45;202.70;;;83.43;;
23384;SDS011;11865;45.394;10.978;2023-02-19T06:46:12;214.32;;;84.32;;
23384;SDS011;11865;45.394;10.978;2023-02-19T06:48:41;209.20;;;83.60;;
23384;SDS011;11865;45.394;10.978;2023-02-19T06:51:13;207.38;;;86.38;;
23384;SDS011;11865;45.394;10.978;2023-02-19T06:53:44;213.48;;;84.97;;
23384;SDS011;11865;45.394;10.978;2023-02-19T06:56:29;199.05;;;84.07;;
23384;SDS011;11865;45.394;10.978;2023-02-19T06:58:57;200.10;;;80.88;;
23384;SDS011;11865;45.394;10.978;2023-02-19T07:01:29;198.00;;;81.68;;
23384;SDS011;11865;45.394;10.978;2023-02-19T07:03:59;194.85;;;80.47;;
23384;SDS011;11865;45.394;10.978;2023-02-19T07:06:27;173.65;;;74.75;;
23384;SDS011;11865;45.394;10.978;2023-02-19T07:08:55;178.45;;;77.05;;
23384;SDS011;11865;45.394;10.978;2023-02-19T07:11:24;159.45;;;71.18;;
23384;SDS011;11865;45.394;10.978;2023-02-19T07:13:55;164.00;;;74.05;;
23384;SDS011;11865;45.394;10.978;2023-02-19T07:16:23;163.82;;;70.95;;
23384;SDS011;11865;45.394;10.978;2023-02-19T07:18:52;152.85;;;71.15;;
23384;SDS011;11865;45.394;10.978;2023-02-19T07:21:22;153.90;;;68.57;;
23384;SDS011;11865;45.394;10.978;2023-02-19T07:23:50;158.70;;;72.85;;
23384;SDS011;11865;45.394;10.978;2023-02-19T07:26:18;158.88;;;71.85;;
23384;SDS011;11865;45.394;10.978;2023-02-19T07:28:48;154.70;;;70.85;;
23384;SDS011;11865;45.394;10.978;2023-02-19T07:31:16;162.48;;;72.95;;
23384;SDS011;11865;45.394;10.978;2023-02-19T07:33:45;172.38;;;75.65;;
23384;SDS011;11865;45.394;10.978;2023-02-19T07:36:13;155.68;;;72.13;;
23384;SDS011;11865;45.394;10.978;2023-02-19T07:38:42;151.65;;;71.28;;
23384;SDS011;11865;45.394;10.978;2023-02-19T07:41:10;150.88;;;72.20;;
23384;SDS011;11865;45.394;10.978;2023-02-19T07:43:39;155.60;;;72.82;;
23384;SDS011;11865;45.394;10.978;2023-02-19T07:46:10;167.82;;;72.82;;
23384;SDS011;11865;45.394;10.978;2023-02-19T07:48:40;160.95;;;72.13;;
23384;SDS011;11865;45.394;10.978;2023-02-19T07:51:12;164.68;;;73.30;;
23384;SDS011;11865;45.394;10.978;2023-02-19T07:53:45;208.80;;;73.78;;
23384;SDS011;11865;45.394;10.978;2023-02-19T07:56:13;198.95;;;78.20;;
23384;SDS011;11865;45.394;10.978;2023-02-19T07:58:41;192.75;;;80.13;;
23384;SDS011;11865;45.394;10.978;2023-02-19T08:01:16;189.80;;;77.13;;
23384;SDS011;11865;45.394;10.978;2023-02-19T08:04:05;217.13;;;76.15;;
23384;SDS011;11865;45.394;10.978;2023-02-19T08:06:33;216.23;;;75.85;;
23384;SDS011;11865;45.394;10.978;2023-02-19T08:09:00;175.60;;;74.30;;
23384;SDS011;11865;45.394;10.978;2023-02-19T08:11:29;182.75;;;74.30;;
23384;SDS011;11865;45.394;10.978;2023-02-19T08:14:15;217.35;;;77.78;;
23384;SDS011;11865;45.394;10.978;2023-02-19T08:16:49;186.95;;;74.95;;
23384;SDS011;11865;45.394;10.978;2023-02-19T08:19:17;183.73;;;74.47;;
23384;SDS011;11865;45.394;10.978;2023-02-19T08:21:45;169.52;;;76.68;;
23384;SDS011;11865;45.394;10.978;2023-02-19T08:24:12;173.02;;;73.93;;
23384;SDS011;11865;45.394;10.978;2023-02-19T08:26:40;182.30;;;75.18;;
23384;SDS011;11865;45.394;10.978;2023-02-19T08:29:07;166.25;;;73.32;;
23384;SDS011;11865;45.394;10.978;2023-02-19T08:31:34;157.88;;;70.15;;
23384;SDS011;11865;45.394;10.978;2023-02-19T08:34:02;165.02;;;71.97;;
23384;SDS011;11865;45.394;10.978;2023-02-19T08:36:30;171.10;;;67.15;;
23384;SDS011;11865;45.394;10.978;2023-02-19T08:38:57;176.60;;;72.65;;
23384;SDS011;11865;45.394;10.978;2023-02-19T08:41:25;173.35;;;71.57;;
23384;SDS011;11865;45.394;10.978;2023-02-19T08:43:52;169.35;;;68.93;;
23384;SDS011;11865;45.394;10.978;2023-02-19T08:46:20;187.80;;;67.95;;
23384;SDS011;11865;45.394;10.978;2023-02-19T08:48:48;164.43;;;67.60;;
23384;SDS011;11865;45.394;10.978;2023-02-19T08:51:16;167.27;;;67.03;;
23384;SDS011;11865;45.394;10.978;2023-02-19T08:53:43;174.75;;;70.90;;
23384;SDS011;11865;45.394;10.978;2023-02-19T08:56:13;173.30;;;65.60;;
23384;SDS011;11865;45.394;10.978;2023-02-19T08:58:41;165.25;;;70.93;;
23384;SDS011;11865;45.394;10.978;2023-02-19T09:01:10;178.05;;;66.72;;
23384;SDS011;11865;45.394;10.978;2023-02-19T09:03:39;174.43;;;67.93;;
23384;SDS011;11865;45.394;10.978;2023-02-19T09:06:18;159.63;;;65.18;;
23384;SDS011;11865;45.394;10.978;2023-02-19T09:08:46;164.32;;;64.80;;
23384;SDS011;11865;45.394;10.978;2023-02-19T09:11:13;162.50;;;69.05;;
23384;SDS011;11865;45.394;10.978;2023-02-19T09:13:41;163.52;;;67.22;;
23384;SDS011;11865;45.394;10.978;2023-02-19T09:16:10;154.35;;;65.03;;
23384;SDS011;11865;45.394;10.978;2023-02-19T09:18:37;190.88;;;69.50;;
23384;SDS011;11865;45.394;10.978;2023-02-19T09:21:05;159.50;;;68.25;;
23384;SDS011;11865;45.394;10.978;2023-02-19T09:23:33;168.73;;;68.97;;
23384;SDS011;11865;45.394;10.978;2023-02-19T09:26:02;168.02;;;66.72;;
23384;SDS011;11865;45.394;10.978;2023-02-19T09:28:33;168.63;;;65.38;;
23384;SDS011;11865;45.394;10.978;2023-02-19T09:31:04;169.32;;;67.03;;
23384;SDS011;11865;45.394;10.978;2023-02-19T09:33:32;180.00;;;72.55;;
23384;SDS011;11865;45.394;10.978;2023-02-19T09:35:59;160.60;;;69.25;;
23384;SDS011;11865;45.394;10.978;2023-02-19T09:38:27;168.35;;;67.68;;
23384;SDS011;11865;45.394;10.978;2023-02-19T09:40:56;173.38;;;69.90;;
23384;SDS011;11865;45.394;10.978;2023-02-19T09:43:26;162.23;;;66.20;;
23384;SDS011;11865;45.394;10.978;2023-02-19T09:49:06;174.70;;;68.10;;
23384;SDS011;11865;45.394;10.978;2023-02-19T09:51:45;169.65;;;68.43;;
23384;SDS011;11865;45.394;10.978;2023-02-19T09:54:19;183.88;;;72.93;;
23384;SDS011;11865;45.394;10.978;2023-02-19T09:56:49;170.43;;;68.05;;
23384;SDS011;11865;45.394;10.978;2023-02-19T09:59:20;176.55;;;70.35;;
23384;SDS011;11865;45.394;10.978;2023-02-19T10:01:58;185.70;;;71.00;;
23384;SDS011;11865;45.394;10.978;2023-02-19T10:04:39;190.35;;;73.22;;
23384;SDS011;11865;45.394;10.978;2023-02-19T10:07:10;185.38;;;77.18;;
23384;SDS011;11865;45.394;10.978;2023-02-19T10:09:58;200.25;;;77.35;;
23384;SDS011;11865;45.394;10.978;2023-02-19T10:12:29;190.95;;;75.72;;
23384;SDS011;11865;45.394;10.978;2023-02-19T10:15:06;200.70;;;77.63;;
23384;SDS011;11865;45.394;10.978;2023-02-19T10:17:41;194.60;;;78.35;;
23384;SDS011;11865;45.394;10.978;2023-02-19T10:20:15;200.60;;;80.07;;
23384;SDS011;11865;45.394;10.978;2023-02-19T10:22:45;213.32;;;79.43;;
23384;SDS011;11865;45.394;10.978;2023-02-19T10:25:13;200.68;;;81.22;;
23384;SDS011;11865;45.394;10.978;2023-02-19T10:27:42;211.15;;;84.85;;
23384;SDS011;11865;45.394;10.978;2023-02-19T10:30:19;208.73;;;79.97;;
23384;SDS011;11865;45.394;10.978;2023-02-19T10:38:45;189.63;;;76.07;;
23384;SDS011;11865;45.394;10.978;2023-02-19T10:41:14;210.18;;;80.55;;
23384;SDS011;11865;45.394;10.978;2023-02-19T10:46:36;190.95;;;77.50;;
23384;SDS011;11865;45.394;10.978;2023-02-19T10:49:21;184.07;;;75.70;;
23384;SDS011;11865;45.394;10.978;2023-02-19T10:51:49;210.13;;;83.22;;
23384;SDS011;11865;45.394;10.978;2023-02-19T10:54:23;194.30;;;79.57;;
23384;SDS011;11865;45.394;10.978;2023-02-19T10:57:10;187.90;;;80.30;;
23384;SDS011;11865;45.394;10.978;2023-02-19T10:59:48;202.15;;;81.00;;
23384;SDS011;11865;45.394;10.978;2023-02-19T11:02:17;204.15;;;80.88;;
23384;SDS011;11865;45.394;10.978;2023-02-19T11:07:28;184.80;;;80.03;;
23384;SDS011;11865;45.394;10.978;2023-02-19T11:09:56;199.98;;;79.57;;
23384;SDS011;11865;45.394;10.978;2023-02-19T11:12:31;193.52;;;78.47;;
23384;SDS011;11865;45.394;10.978;2023-02-19T11:15:48;192.02;;;80.03;;
23384;SDS011;11865;45.394;10.978;2023-02-19T11:18:22;204.40;;;84.07;;
23384;SDS011;11865;45.394;10.978;2023-02-19T11:21:22;204.75;;;83.10;;
23384;SDS011;11865;45.394;10.978;2023-02-19T11:23:50;200.02;;;84.30;;
23384;SDS011;11865;45.394;10.978;2023-02-19T11:26:18;197.10;;;82.60;;
23384;SDS011;11865;45.394;10.978;2023-02-19T11:28:55;199.43;;;82.13;;
23384;SDS011;11865;45.394;10.978;2023-02-19T11:31:32;195.95;;;83.00;;
23384;SDS011;11865;45.394;10.978;2023-02-19T11:34:02;216.10;;;85.00;;
23384;SDS011;11865;45.394;10.978;2023-02-19T11:37:09;198.00;;;85.13;;
23384;SDS011;11865;45.394;10.978;2023-02-19T11:39:39;198.20;;;82.75;;
23384;SDS011;11865;45.394;10.978;2023-02-19T11:47:38;196.07;;;81.43;;
23384;SDS011;11865;45.394;10.978;2023-02-19T11:52:47;183.63;;;80.82;;
23384;SDS011;11865;45.394;10.978;2023-02-19T11:55:30;190.10;;;79.20;;
23384;SDS011;11865;45.394;10.978;2023-02-19T12:43:18;164.95;;;74.78;;
23384;SDS011;11865;45.394;10.978;2023-02-19T12:48:39;160.52;;;71.13;;
23384;SDS011;11865;45.394;10.978;2023-02-19T12:53:47;160.20;;;68.93;;
23384;SDS011;11865;45.394;10.978;2023-02-19T12:56:29;158.43;;;70.32;;
23384;SDS011;11865;45.394;10.978;2023-02-19T12:59:37;157.57;;;69.13;;
23384;SDS011;11865;45.394;10.978;2023-02-19T13:02:12;147.73;;;64.50;;
23384;SDS011;11865;45.394;10.978;2023-02-19T13:05:01;144.07;;;65.20;;
23384;SDS011;11865;45.394;10.978;2023-02-19T13:10:36;153.88;;;67.47;;
23384;SDS011;11865;45.394;10.978;2023-02-19T13:16:10;146.60;;;67.38;;
23384;SDS011;11865;45.394;10.978;2023-02-19T13:18:45;150.73;;;69.90;;
23384;SDS011;11865;45.394;10.978;2023-02-19T13:21:18;142.07;;;67.30;;
23384;SDS011;11865;45.394;10.978;2023-02-19T13:24:08;147.18;;;66.35;;
23384;SDS011;11865;45.394;10.978;2023-02-19T13:35:33;150.43;;;68.07;;
23384;SDS011;11865;45.394;10.978;2023-02-19T13:38:10;148.50;;;68.75;;
23384;SDS011;11865;45.394;10.978;2023-02-19T13:40:40;141.73;;;64.78;;
23384;SDS011;11865;45.394;10.978;2023-02-19T13:43:21;146.88;;;66.55;;
23384;SDS011;11865;45.394;10.978;2023-02-19T13:45:59;152.55;;;70.43;;
23384;SDS011;11865;45.394;10.978;2023-02-19T13:48:33;144.90;;;66.72;;
23384;SDS011;11865;45.394;10.978;2023-02-19T13:58:57;138.55;;;63.88;;
23384;SDS011;11865;45.394;10.978;2023-02-19T14:04:21;145.52;;;66.32;;
23384;SDS011;11865;45.394;10.978;2023-02-19T14:14:42;148.18;;;66.60;;
23384;SDS011;11865;45.394;10.978;2023-02-19T14:27:58;132.88;;;63.75;;
23384;SDS011;11865;45.394;10.978;2023-02-19T14:30:30;136.20;;;62.72;;
23384;SDS011;11865;45.394;10.978;2023-02-19T14:33:00;131.38;;;61.38;;
23384;SDS011;11865;45.394;10.978;2023-02-19T14:35:38;137.20;;;64.72;;
23384;SDS011;11865;45.394;10.978;2023-02-19T14:38:24;139.13;;;63.83;;
23384;SDS011;11865;45.394;10.978;2023-02-19T14:40:56;141.60;;;64.18;;
23384;SDS011;11865;45.394;10.978;2023-02-19T14:43:24;144.80;;;65.28;;
23384;SDS011;11865;45.394;10.978;2023-02-19T14:48:43;131.93;;;64.00;;
23384;SDS011;11865;45.394;10.978;2023-02-19T14:54:09;150.07;;;67.97;;
23384;SDS011;11865;45.394;10.978;2023-02-19T14:56:55;143.32;;;62.88;;
23384;SDS011;11865;45.394;10.978;2023-02-19T14:59:27;144.15;;;62.97;;
23384;SDS011;11865;45.394;10.978;2023-02-19T15:02:00;137.80;;;61.03;;
23384;SDS011;11865;45.394;10.978;2023-02-19T15:04:33;149.38;;;65.03;;
23384;SDS011;11865;45.394;10.978;2023-02-19T15:07:04;155.10;;;66.60;;
23384;SDS011;11865;45.394;10.978;2023-02-19T15:09:41;144.95;;;67.93;;
23384;SDS011;11865;45.394;10.978;2023-02-19T15:12:23;142.20;;;64.88;;
23384;SDS011;11865;45.394;10.978;2023-02-19T15:14:53;139.20;;;64.22;;
23384;SDS011;11865;45.394;10.978;2023-02-19T15:17:27;139.48;;;61.92;;
23384;SDS011;11865;45.394;10.978;2023-02-19T15:19:57;140.70;;;65.28;;
23384;SDS011;11865;45.394;10.978;2023-02-19T15:22:31;137.13;;;63.15;;
23384;SDS011;11865;45.394;10.978;2023-02-19T15:24:59;139.48;;;61.55;;
23384;SDS011;11865;45.394;10.978;2023-02-19T15:27:28;138.40;;;64.20;;
23384;SDS011;11865;45.394;10.978;2023-02-19T15:29:55;136.27;;;62.05;;
23384;SDS011;11865;45.394;10.978;2023-02-19T15:32:24;139.10;;;62.20;;
23384;SDS011;11865;45.394;10.978;2023-02-19T15:35:00;144.80;;;63.53;;
23384;SDS011;11865;45.394;10.978;2023-02-19T15:37:30;164.75;;;69.90;;
23384;SDS011;11865;45.394;10.978;2023-02-19T15:40:00;147.55;;;65.15;;
23384;SDS011;11865;45.394;10.978;2023-02-19T15:42:33;146.90;;;68.15;;
23384;SDS011;11865;45.394;10.978;2023-02-19T15:45:05;152.05;;;69.35;;
23384;SDS011;11865;45.394;10.978;2023-02-19T15:50:30;157.88;;;70.07;;
23384;SDS011;11865;45.394;10.978;2023-02-19T15:53:07;157.85;;;69.25;;
23384;SDS011;11865;45.394;10.978;2023-02-19T15:58:36;165.05;;;70.72;;
23384;SDS011;11865;45.394;10.978;2023-02-19T16:01:11;149.77;;;67.03;;
23384;SDS011;11865;45.394;10.978;2023-02-19T16:03:39;155.48;;;68.88;;
23384;SDS011;11865;45.394;10.978;2023-02-19T16:06:08;154.23;;;68.47;;
23384;SDS011;11865;45.394;10.978;2023-02-19T16:08:44;152.27;;;67.95;;
23384;SDS011;11865;45.394;10.978;2023-02-19T16:13:48;162.05;;;71.07;;
23384;SDS011;11865;45.394;10.978;2023-02-19T16:16:23;159.45;;;68.78;;
23384;SDS011;11865;45.394;10.978;2023-02-19T16:18:55;153.30;;;67.57;;
23384;SDS011;11865;45.394;10.978;2023-02-19T16:21:23;155.35;;;68.43;;
23384;SDS011;11865;45.394;10.978;2023-02-19T16:23:55;159.35;;;70.30;;
23384;SDS011;11865;45.394;10.978;2023-02-19T16:26:29;163.00;;;67.78;;
23384;SDS011;11865;45.394;10.978;2023-02-19T16:29:44;172.77;;;71.40;;
23384;SDS011;11865;45.394;10.978;2023-02-19T16:32:02;173.13;;;72.60;;
23384;SDS011;11865;45.394;10.978;2023-02-19T16:42:35;203.75;;;78.45;;
23384;SDS011;11865;45.394;10.978;2023-02-19T16:45:15;202.85;;;80.63;;
23384;SDS011;11865;45.394;10.978;2023-02-19T16:47:44;215.07;;;78.47;;
23384;SDS011;11865;45.394;10.978;2023-02-19T16:50:15;198.20;;;77.78;;
23384;SDS011;11865;45.394;10.978;2023-02-19T16:55:21;211.32;;;81.35;;
23384;SDS011;11865;45.394;10.978;2023-02-19T16:57:48;212.35;;;81.05;;
23384;SDS011;11865;45.394;10.978;2023-02-19T17:02:47;225.38;;;81.32;;
23384;SDS011;11865;45.394;10.978;2023-02-19T17:05:17;225.95;;;81.97;;
23384;SDS011;11865;45.394;10.978;2023-02-19T17:07:45;216.02;;;82.57;;
23384;SDS011;11865;45.394;10.978;2023-02-19T17:10:18;215.55;;;80.78;;
23384;SDS011;11865;45.394;10.978;2023-02-19T17:12:49;212.02;;;81.38;;
23384;SDS011;11865;45.394;10.978;2023-02-19T17:15:17;215.38;;;83.55;;
23384;SDS011;11865;45.394;10.978;2023-02-19T17:17:44;200.75;;;79.25;;
23384;SDS011;11865;45.394;10.978;2023-02-19T17:20:22;213.60;;;81.88;;
23384;SDS011;11865;45.394;10.978;2023-02-19T17:22:53;218.77;;;83.35;;
23384;SDS011;11865;45.394;10.978;2023-02-19T17:25:21;215.18;;;84.57;;
23384;SDS011;11865;45.394;10.978;2023-02-19T17:27:49;211.88;;;79.55;;
23384;SDS011;11865;45.394;10.978;2023-02-19T17:30:17;206.18;;;78.50;;